createdAt,value
2022-12-29T00:00:04.375Z,6.00
2022-12-29T00:02:40.041Z,5.90
2022-12-29T00:05:08.104Z,6.00
2022-12-29T00:07:35.424Z,6.00
2022-12-29T00:10:02.798Z,6.00
2022-12-29T00:12:50.135Z,5.90
2022-12-29T00:15:36.026Z,6.00
2022-12-29T00:18:03.577Z,5.90
2022-12-29T00:20:49.325Z,6.00
2022-12-29T00:23:35.205Z,6.00
2022-12-29T00:26:23.482Z,6.00
2022-12-29T00:29:09.950Z,6.00
2022-12-29T00:31:55.740Z,6.00
2022-12-29T00:34:41.448Z,6.00
2022-12-29T00:37:08.788Z,6.00
2022-12-29T00:39:54.620Z,6.00
2022-12-29T00:42:40.257Z,6.00
2022-12-29T00:45:07.825Z,6.10
2022-12-29T00:47:35.131Z,6.00
2022-12-29T00:50:02.402Z,6.00
2022-12-29T00:52:29.723Z,6.00
2022-12-29T00:54:57.159Z,6.00
2022-12-29T00:57:24.491Z,6.00
2022-12-29T00:59:51.785Z,6.00
2022-12-29T01:02:19.612Z,6.00
2022-12-29T01:04:47.939Z,6.00
2022-12-29T01:07:17.114Z,6.10
2022-12-29T01:10:04.407Z,6.10
2022-12-29T01:12:51.282Z,6.10
2022-12-29T01:15:18.680Z,6.00
2022-12-29T01:17:46.001Z,6.00
2022-12-29T01:20:13.428Z,6.00
2022-12-29T01:22:43.403Z,6.00
2022-12-29T01:25:10.753Z,6.00
2022-12-29T01:27:39.369Z,6.00
2022-12-29T01:30:07.337Z,6.00
2022-12-29T01:32:34.793Z,6.00
2022-12-29T01:35:02.233Z,6.00
2022-12-29T01:37:29.624Z,6.10
2022-12-29T01:39:57.524Z,6.10
2022-12-29T01:42:26.481Z,6.10
2022-12-29T01:44:58.899Z,6.10
2022-12-29T01:47:47.327Z,6.10
2022-12-29T01:50:23.531Z,6.10
2022-12-29T01:53:02.867Z,6.20
2022-12-29T01:55:32.307Z,6.10
2022-12-29T01:58:01.027Z,6.10
2022-12-29T02:00:28.372Z,6.20
2022-12-29T02:02:55.781Z,6.20
2022-12-29T02:05:47.278Z,6.20
2022-12-29T02:08:14.652Z,6.20
2022-12-29T02:10:41.957Z,6.20
2022-12-29T02:13:09.334Z,6.20
2022-12-29T02:15:46.927Z,6.20
2022-12-29T02:18:20.691Z,6.20
2022-12-29T02:21:02.989Z,6.20
2022-12-29T02:24:10.039Z,6.20
2022-12-29T02:27:06.162Z,6.20
2022-12-29T02:29:56.649Z,6.20
2022-12-29T02:32:35.952Z,6.20
2022-12-29T02:35:48.578Z,6.20
2022-12-29T02:38:42.200Z,6.20
2022-12-29T02:41:34.424Z,6.20
2022-12-29T02:44:23.572Z,6.30
2022-12-29T02:47:03.410Z,6.30
2022-12-29T02:49:41.233Z,6.30
2022-12-29T02:52:21.032Z,6.40
2022-12-29T02:54:50.203Z,6.40
2022-12-29T02:57:23.618Z,6.40
2022-12-29T02:59:59.412Z,6.30
2022-12-29T03:02:51.913Z,6.30
2022-12-29T03:05:22.427Z,6.30
2022-12-29T03:08:03.081Z,6.40
2022-12-29T03:10:47.309Z,6.40
2022-12-29T03:13:48.467Z,6.40
2022-12-29T03:16:36.594Z,6.50
2022-12-29T03:19:11.184Z,6.50
2022-12-29T03:22:03.483Z,6.60
2022-12-29T03:24:38.144Z,6.60
2022-12-29T03:27:07.429Z,6.60
2022-12-29T03:29:46.440Z,6.70
2022-12-29T03:32:14.618Z,6.70
2022-12-29T03:34:42.025Z,6.80
2022-12-29T03:37:14.193Z,6.80
2022-12-29T03:39:41.760Z,6.90
2022-12-29T03:42:12.728Z,6.90
2022-12-29T03:44:41.955Z,7.00
2022-12-29T03:47:11.698Z,7.00
2022-12-29T03:49:39.265Z,7.10
2022-12-29T03:52:06.750Z,7.10
2022-12-29T03:54:39.006Z,7.10
2022-12-29T03:57:07.053Z,7.10
2022-12-29T03:59:45.487Z,7.10
2022-12-29T04:02:13.182Z,7.20
2022-12-29T04:04:41.733Z,7.20
2022-12-29T04:07:09.126Z,7.20
2022-12-29T04:09:36.537Z,7.20
2022-12-29T04:12:04.318Z,7.20
2022-12-29T04:14:31.700Z,7.20
2022-12-29T04:16:59.073Z,7.20
2022-12-29T04:19:26.432Z,7.20
2022-12-29T04:21:53.838Z,7.20
2022-12-29T04:24:21.778Z,7.20
2022-12-29T04:26:51.143Z,7.20
2022-12-29T04:29:47.374Z,7.20
2022-12-29T04:32:33.392Z,7.20
2022-12-29T04:35:01.213Z,7.30
2022-12-29T04:37:29.127Z,7.30
2022-12-29T04:39:57.768Z,7.30
2022-12-29T04:42:25.130Z,7.30
2022-12-29T04:44:53.187Z,7.30
2022-12-29T04:47:52.106Z,7.30
2022-12-29T04:50:37.855Z,7.30
2022-12-29T04:53:14.633Z,7.30
2022-12-29T04:55:43.557Z,7.30
2022-12-29T04:58:10.902Z,7.40
2022-12-29T05:00:38.415Z,7.40
2022-12-29T05:03:06.274Z,7.40
2022-12-29T05:05:33.843Z,7.40
2022-12-29T05:08:02.214Z,7.40
2022-12-29T05:10:29.555Z,7.40
2022-12-29T05:13:00.949Z,7.40
2022-12-29T05:15:28.958Z,7.50
2022-12-29T05:17:56.319Z,7.50
2022-12-29T05:20:23.720Z,7.50
2022-12-29T05:22:51.413Z,7.50
2022-12-29T05:25:18.715Z,7.50
2022-12-29T05:28:04.100Z,7.50
2022-12-29T05:30:44.986Z,7.50
2022-12-29T05:33:12.844Z,7.50
2022-12-29T05:35:41.070Z,7.50
2022-12-29T05:38:08.600Z,7.60
2022-12-29T05:40:35.906Z,7.60
2022-12-29T05:43:07.576Z,7.60
2022-12-29T05:45:55.250Z,7.70
2022-12-29T05:48:40.981Z,7.70
2022-12-29T05:51:37.471Z,7.70
2022-12-29T05:54:04.938Z,7.70
2022-12-29T05:56:32.418Z,7.60
2022-12-29T05:59:02.129Z,7.60
2022-12-29T06:01:29.501Z,7.60
2022-12-29T06:03:58.236Z,7.60
2022-12-29T06:06:26.059Z,7.60
2022-12-29T06:08:53.721Z,7.60
2022-12-29T06:11:21.901Z,7.60
2022-12-29T06:13:59.911Z,7.60
2022-12-29T06:16:27.361Z,7.50
2022-12-29T06:18:58.437Z,7.50
2022-12-29T06:21:25.795Z,7.50
2022-12-29T06:23:53.091Z,7.50
2022-12-29T06:26:21.495Z,7.40
2022-12-29T06:28:49.646Z,7.50
2022-12-29T06:31:17.627Z,7.50
2022-12-29T06:33:49.655Z,7.40
2022-12-29T06:36:17.659Z,7.40
2022-12-29T06:38:45.298Z,7.50
2022-12-29T06:41:13.216Z,7.50
2022-12-29T06:43:59.335Z,7.50
2022-12-29T06:46:45.112Z,7.50
2022-12-29T06:49:12.388Z,7.50
2022-12-29T06:51:39.656Z,7.50
2022-12-29T06:54:06.977Z,7.50
2022-12-29T06:56:34.307Z,7.50
2022-12-29T06:59:02.131Z,7.40
2022-12-29T07:01:29.577Z,7.40
2022-12-29T07:03:57.102Z,7.40
2022-12-29T07:06:24.407Z,7.40
2022-12-29T07:08:51.743Z,7.40
2022-12-29T07:11:19.031Z,7.40
2022-12-29T07:13:46.304Z,7.40
2022-12-29T07:16:13.726Z,7.40
2022-12-29T07:18:41.043Z,7.40
2022-12-29T07:21:08.458Z,7.40
2022-12-29T07:23:35.803Z,7.40
2022-12-29T07:26:04.139Z,7.30
2022-12-29T07:28:31.543Z,7.40
2022-12-29T07:30:59.448Z,7.40
2022-12-29T07:33:28.891Z,7.40
2022-12-29T07:35:56.290Z,7.40
2022-12-29T07:38:23.714Z,7.40
2022-12-29T07:40:51.020Z,7.40
2022-12-29T07:43:18.312Z,7.30
2022-12-29T07:46:00.095Z,7.30
2022-12-29T07:48:29.428Z,7.40
2022-12-29T07:50:56.741Z,7.30
2022-12-29T07:53:24.044Z,7.40
2022-12-29T07:55:51.328Z,7.40
2022-12-29T07:58:19.659Z,7.50
2022-12-29T08:00:46.938Z,7.50
2022-12-29T08:03:14.300Z,7.60
2022-12-29T08:05:41.587Z,7.60
2022-12-29T08:08:08.953Z,7.60
2022-12-29T08:10:36.279Z,7.60
2022-12-29T08:13:03.645Z,7.70
2022-12-29T08:15:32.670Z,7.70
2022-12-29T08:18:00.247Z,7.80
2022-12-29T08:20:27.567Z,7.80
2022-12-29T08:22:54.883Z,7.80
2022-12-29T08:25:22.228Z,7.80
2022-12-29T08:27:49.496Z,7.80
2022-12-29T08:30:17.446Z,7.80
2022-12-29T08:32:44.791Z,7.90
2022-12-29T08:35:13.699Z,7.90
2022-12-29T08:37:40.992Z,7.90
2022-12-29T08:40:09.031Z,7.90
2022-12-29T08:42:36.345Z,7.90
2022-12-29T08:45:03.914Z,8.00
2022-12-29T08:47:31.282Z,8.10
2022-12-29T08:49:58.573Z,8.20
2022-12-29T08:52:25.911Z,8.30
2022-12-29T08:54:53.210Z,8.30
2022-12-29T08:57:21.463Z,8.50
2022-12-29T09:00:06.124Z,8.50
2022-12-29T09:02:33.627Z,8.60
2022-12-29T09:05:02.025Z,8.60
2022-12-29T09:07:29.509Z,8.70
2022-12-29T09:09:56.817Z,8.70
2022-12-29T09:12:24.175Z,8.80
2022-12-29T09:14:51.469Z,8.80
2022-12-29T09:17:37.626Z,9.00
2022-12-29T09:20:05.531Z,9.00
2022-12-29T09:22:32.872Z,9.10
2022-12-29T09:25:00.187Z,9.30
2022-12-29T09:27:27.476Z,9.30
2022-12-29T09:29:54.843Z,9.40
2022-12-29T09:32:23.638Z,9.60
2022-12-29T09:34:51.734Z,9.60
2022-12-29T09:37:19.028Z,9.80
2022-12-29T09:39:52.154Z,9.80
2022-12-29T09:42:40.327Z,10.00
2022-12-29T09:45:24.445Z,10.10
2022-12-29T09:47:51.798Z,10.20
2022-12-29T09:50:29.876Z,10.20
2022-12-29T09:53:03.182Z,10.30
2022-12-29T09:55:39.215Z,10.30
2022-12-29T09:58:26.177Z,10.30
2022-12-29T10:01:22.630Z,10.30
2022-12-29T10:03:51.625Z,10.30
2022-12-29T10:06:32.676Z,10.30
2022-12-29T10:09:02.867Z,10.30
2022-12-29T10:11:37.668Z,10.30
2022-12-29T10:14:21.428Z,10.30
2022-12-29T10:17:16.196Z,10.30
2022-12-29T10:20:12.033Z,10.40
2022-12-29T10:23:04.367Z,10.40
2022-12-29T10:25:33.918Z,10.40
2022-12-29T10:28:02.660Z,10.40
2022-12-29T10:30:29.965Z,10.50
2022-12-29T10:32:59.504Z,10.40
2022-12-29T10:35:31.640Z,10.40
2022-12-29T10:38:14.214Z,10.50
2022-12-29T10:41:03.983Z,10.50
2022-12-29T10:43:38.400Z,10.60
2022-12-29T10:46:12.708Z,10.60
2022-12-29T10:48:40.347Z,10.70
2022-12-29T10:51:09.391Z,10.70
2022-12-29T10:53:44.696Z,10.70
2022-12-29T10:56:26.804Z,10.80
2022-12-29T10:58:54.142Z,10.90
2022-12-29T11:01:21.579Z,10.80
2022-12-29T11:04:20.778Z,10.80
2022-12-29T11:06:48.112Z,10.90
2022-12-29T11:09:17.570Z,10.90
2022-12-29T11:11:44.872Z,10.90
2022-12-29T11:14:20.480Z,10.90
2022-12-29T11:17:01.137Z,11.00
2022-12-29T11:19:37.479Z,11.10
2022-12-29T11:22:15.985Z,11.20
2022-12-29T11:24:47.202Z,11.40
2022-12-29T11:27:23.827Z,11.50
2022-12-29T11:29:52.071Z,11.60
2022-12-29T11:32:26.242Z,11.80
2022-12-29T11:34:56.798Z,11.90
2022-12-29T11:37:32.648Z,11.90
2022-12-29T11:40:00.718Z,12.00
2022-12-29T11:42:36.796Z,12.00
2022-12-29T11:45:26.607Z,12.10
2022-12-29T11:47:59.389Z,12.20
2022-12-29T11:50:30.954Z,12.20
2022-12-29T11:53:05.106Z,12.40
2022-12-29T11:55:32.532Z,12.40
2022-12-29T11:58:02.425Z,12.50
2022-12-29T12:00:31.725Z,12.60
2022-12-29T12:03:13.088Z,12.70
2022-12-29T12:05:57.711Z,12.80
2022-12-29T12:08:40.076Z,12.90
2022-12-29T12:11:14.294Z,12.90
2022-12-29T12:13:56.838Z,13.00
2022-12-29T12:17:02.263Z,13.00
2022-12-29T12:20:25.664Z,13.00
2022-12-29T12:22:59.889Z,13.10
2022-12-29T12:25:32.171Z,13.10
2022-12-29T12:28:18.622Z,13.00
2022-12-29T12:30:51.055Z,13.00
2022-12-29T12:33:30.408Z,13.10
2022-12-29T12:36:29.905Z,13.10
2022-12-29T12:39:19.027Z,13.20
2022-12-29T12:42:12.533Z,13.30
2022-12-29T12:44:58.635Z,13.30
2022-12-29T12:47:40.967Z,13.40
2022-12-29T12:50:19.499Z,13.40
2022-12-29T12:52:49.876Z,13.40
2022-12-29T12:55:58.812Z,13.30
2022-12-29T12:58:30.465Z,13.30
2022-12-29T13:01:16.580Z,13.20
2022-12-29T13:04:05.700Z,13.20
2022-12-29T13:06:43.048Z,13.20
2022-12-29T13:09:10.413Z,13.20
2022-12-29T13:11:56.158Z,13.10
2022-12-29T13:14:33.888Z,13.10
2022-12-29T13:17:31.554Z,13.10
2022-12-29T13:20:21.465Z,13.10
2022-12-29T13:23:02.878Z,13.10
2022-12-29T13:25:52.392Z,13.10
2022-12-29T13:28:53.162Z,13.00
2022-12-29T13:31:30.927Z,13.00
2022-12-29T13:34:06.790Z,12.90
2022-12-29T13:36:45.368Z,12.90
2022-12-29T13:39:29.849Z,12.90
2022-12-29T13:41:57.710Z,12.90
2022-12-29T13:44:41.779Z,12.90
2022-12-29T13:47:35.668Z,12.90
2022-12-29T13:50:04.540Z,13.00
2022-12-29T13:52:35.055Z,12.90
2022-12-29T13:55:14.320Z,12.90
2022-12-29T13:58:19.492Z,12.90
2022-12-29T14:00:57.899Z,12.90
2022-12-29T14:03:48.964Z,12.90
2022-12-29T14:06:26.921Z,12.80
2022-12-29T14:08:59.066Z,12.80
2022-12-29T14:11:36.856Z,12.70
2022-12-29T14:14:13.465Z,12.70
2022-12-29T14:16:42.100Z,12.60
2022-12-29T14:19:18.401Z,12.60
2022-12-29T14:22:01.438Z,12.60
2022-12-29T14:24:37.703Z,12.60
2022-12-29T14:27:11.110Z,12.50
2022-12-29T14:29:41.539Z,12.50
2022-12-29T14:32:27.305Z,12.50
2022-12-29T14:35:02.063Z,12.40
2022-12-29T14:37:36.727Z,12.40
2022-12-29T14:40:27.279Z,12.40
2022-12-29T14:42:55.612Z,12.40
2022-12-29T14:45:30.058Z,12.30
2022-12-29T14:47:57.307Z,12.30
2022-12-29T14:50:26.595Z,12.20
2022-12-29T14:53:02.604Z,12.20
2022-12-29T14:55:43.929Z,12.10
2022-12-29T14:58:20.138Z,12.10
2022-12-29T15:00:47.675Z,12.00
2022-12-29T15:03:19.349Z,12.00
2022-12-29T15:05:56.492Z,11.90
2022-12-29T15:08:25.807Z,11.80
2022-12-29T15:10:56.685Z,11.80
2022-12-29T15:13:26.580Z,11.70
2022-12-29T15:15:54.019Z,11.70
2022-12-29T15:18:24.888Z,11.70
2022-12-29T15:20:54.490Z,11.60
2022-12-29T15:23:21.802Z,11.60
2022-12-29T15:25:56.111Z,11.50
2022-12-29T15:28:23.623Z,11.50
2022-12-29T15:31:02.908Z,11.40
2022-12-29T15:33:30.364Z,11.30
2022-12-29T15:35:58.556Z,11.30
2022-12-29T15:38:34.654Z,11.30
2022-12-29T15:41:30.265Z,11.30
2022-12-29T15:44:15.525Z,11.20
2022-12-29T15:46:42.919Z,11.20
2022-12-29T15:49:10.329Z,11.10
2022-12-29T15:51:39.379Z,11.10
2022-12-29T15:54:07.303Z,11.10
2022-12-29T15:56:34.692Z,11.00
2022-12-29T15:59:02.814Z,11.00
2022-12-29T16:01:35.159Z,11.00
2022-12-29T16:04:05.769Z,11.00
2022-12-29T16:06:33.177Z,11.00
2022-12-29T16:09:17.407Z,11.00
2022-12-29T16:11:49.066Z,11.00
2022-12-29T16:14:18.688Z,10.90
2022-12-29T16:16:46.230Z,10.90
2022-12-29T16:19:25.770Z,10.90
2022-12-29T16:21:53.085Z,10.90
2022-12-29T16:24:22.472Z,10.90
2022-12-29T16:26:52.473Z,10.90
2022-12-29T16:29:21.131Z,10.80
2022-12-29T16:32:03.809Z,10.80
2022-12-29T16:34:34.709Z,10.80
2022-12-29T16:37:03.898Z,10.80
2022-12-29T16:39:40.222Z,10.80
2022-12-29T16:42:45.607Z,10.80
2022-12-29T16:45:24.882Z,10.80
2022-12-29T16:48:11.494Z,10.80
2022-12-29T16:50:39.920Z,10.80
2022-12-29T16:53:07.248Z,10.80
2022-12-29T16:55:34.580Z,10.70
2022-12-29T16:58:01.888Z,10.70
2022-12-29T17:00:32.951Z,10.70
2022-12-29T17:03:00.535Z,10.70
2022-12-29T17:05:28.042Z,10.80
2022-12-29T17:07:55.968Z,10.80
2022-12-29T17:10:43.221Z,10.80
2022-12-29T17:13:11.232Z,10.80
2022-12-29T17:15:38.750Z,10.70
2022-12-29T17:18:13.431Z,10.70
2022-12-29T17:20:42.180Z,10.70
2022-12-29T17:23:17.501Z,10.70
2022-12-29T17:25:47.147Z,10.60
2022-12-29T17:28:21.567Z,10.60
2022-12-29T17:30:49.555Z,10.60
2022-12-29T17:33:20.339Z,10.60
2022-12-29T17:35:53.246Z,10.50
2022-12-29T17:38:30.044Z,10.60
2022-12-29T17:40:58.140Z,10.50
2022-12-29T17:43:25.724Z,10.50
2022-12-29T17:45:54.865Z,10.50
2022-12-29T17:48:22.616Z,10.50
2022-12-29T17:50:51.244Z,10.50
2022-12-29T17:53:27.174Z,10.50
2022-12-29T17:55:54.556Z,10.50
2022-12-29T17:58:26.074Z,10.60
2022-12-29T18:00:55.825Z,10.50
2022-12-29T18:03:31.378Z,10.50
2022-12-29T18:05:58.835Z,10.50
2022-12-29T18:08:28.528Z,10.50
2022-12-29T18:10:55.870Z,10.50
2022-12-29T18:13:41.594Z,10.50
2022-12-29T18:16:13.721Z,10.40
2022-12-29T18:18:41.116Z,10.50
2022-12-29T18:21:16.848Z,10.40
2022-12-29T18:23:44.449Z,10.40
2022-12-29T18:26:25.462Z,10.40
2022-12-29T18:28:58.585Z,10.40
2022-12-29T18:31:29.503Z,10.30
2022-12-29T18:33:57.764Z,10.30
2022-12-29T18:36:25.565Z,10.30
2022-12-29T18:38:54.611Z,10.30
2022-12-29T18:41:31.024Z,10.30
2022-12-29T18:43:58.833Z,10.30
2022-12-29T18:46:26.289Z,10.30
2022-12-29T18:48:53.980Z,10.30
2022-12-29T18:51:24.646Z,10.30
2022-12-29T18:53:54.088Z,10.30
2022-12-29T18:56:22.640Z,10.30
2022-12-29T18:58:50.561Z,10.30
2022-12-29T19:01:25.515Z,10.30
2022-12-29T19:03:53.170Z,10.40
2022-12-29T19:06:23.698Z,10.30
2022-12-29T19:08:51.020Z,10.30
2022-12-29T19:11:18.522Z,10.40
2022-12-29T19:13:45.851Z,10.30
2022-12-29T19:16:18.688Z,10.30
2022-12-29T19:18:53.340Z,10.30
2022-12-29T19:21:31.388Z,10.40
2022-12-29T19:23:58.736Z,10.40
2022-12-29T19:26:30.846Z,10.40
2022-12-29T19:28:58.329Z,10.50
2022-12-29T19:31:25.817Z,10.40
2022-12-29T19:33:53.504Z,10.40
2022-12-29T19:36:22.543Z,10.40
2022-12-29T19:38:49.972Z,10.40
2022-12-29T19:41:17.347Z,10.30
2022-12-29T19:43:44.660Z,10.40
2022-12-29T19:46:16.839Z,10.30
2022-12-29T19:48:44.490Z,10.30
2022-12-29T19:51:15.521Z,10.30
2022-12-29T19:53:43.375Z,10.30
2022-12-29T19:56:11.038Z,10.30
2022-12-29T19:58:42.629Z,10.30
2022-12-29T20:01:15.070Z,10.30
2022-12-29T20:03:42.514Z,10.30
2022-12-29T20:06:10.313Z,10.30
2022-12-29T20:08:38.017Z,10.30
2022-12-29T20:11:13.612Z,10.30
2022-12-29T20:13:41.400Z,10.30
2022-12-29T20:16:11.641Z,10.30
2022-12-29T20:18:39.055Z,10.20
2022-12-29T20:21:08.209Z,10.20
2022-12-29T20:23:36.916Z,10.20
2022-12-29T20:26:04.315Z,10.20
2022-12-29T20:28:31.714Z,10.20
2022-12-29T20:31:14.245Z,10.10
2022-12-29T20:33:41.687Z,10.00
2022-12-29T20:36:11.513Z,10.00
2022-12-29T20:38:38.827Z,10.00
2022-12-29T20:41:06.335Z,9.90
2022-12-29T20:43:33.875Z,9.90
2022-12-29T20:46:01.322Z,9.90
2022-12-29T20:48:29.637Z,9.80
2022-12-29T20:51:00.521Z,9.80
2022-12-29T20:53:28.306Z,9.80
2022-12-29T20:55:59.644Z,9.80
2022-12-29T20:58:26.978Z,9.80
2022-12-29T21:00:54.908Z,9.80
2022-12-29T21:03:22.705Z,9.80
2022-12-29T21:05:51.778Z,9.80
2022-12-29T21:08:21.050Z,9.80
2022-12-29T21:10:48.784Z,9.80
2022-12-29T21:13:16.599Z,9.80
2022-12-29T21:15:44.866Z,9.80
2022-12-29T21:18:13.653Z,9.80
2022-12-29T21:20:41.243Z,9.80
2022-12-29T21:23:09.566Z,9.80
2022-12-29T21:25:37.327Z,9.80
2022-12-29T21:28:05.670Z,9.80
2022-12-29T21:30:33.790Z,9.80
2022-12-29T21:33:01.208Z,9.80
2022-12-29T21:35:28.666Z,9.80
2022-12-29T21:37:56.065Z,9.80
2022-12-29T21:40:23.410Z,9.80
2022-12-29T21:42:50.820Z,9.80
2022-12-29T21:45:27.588Z,9.80
2022-12-29T21:48:16.185Z,9.80
2022-12-29T21:51:03.833Z,9.80
2022-12-29T21:53:38.736Z,9.70
2022-12-29T21:56:06.253Z,9.70
2022-12-29T21:58:51.898Z,9.70
2022-12-29T22:01:38.204Z,9.60
2022-12-29T22:04:24.089Z,9.60
2022-12-29T22:07:09.943Z,9.50
2022-12-29T22:09:55.819Z,9.50
2022-12-29T22:12:41.568Z,9.40
2022-12-29T22:15:09.208Z,9.40
2022-12-29T22:17:37.743Z,9.40
2022-12-29T22:20:06.650Z,9.40
2022-12-29T22:22:33.980Z,9.30
2022-12-29T22:25:02.708Z,9.30
2022-12-29T22:27:30.126Z,9.30
2022-12-29T22:29:57.449Z,9.30
2022-12-29T22:32:24.807Z,9.30
2022-12-29T22:34:52.167Z,9.30
2022-12-29T22:37:19.506Z,9.30
2022-12-29T22:39:46.804Z,9.30
2022-12-29T22:42:14.151Z,9.20
2022-12-29T22:44:41.502Z,9.20
2022-12-29T22:47:08.852Z,9.20
2022-12-29T22:49:36.208Z,9.20
2022-12-29T22:52:04.007Z,9.20
2022-12-29T22:54:31.363Z,9.20
2022-12-29T22:56:58.668Z,9.20
2022-12-29T22:59:26.002Z,9.20
2022-12-29T23:01:53.416Z,9.20
2022-12-29T23:05:02.382Z,9.20
2022-12-29T23:07:08.065Z,9.20
2022-12-29T23:09:35.343Z,9.20
2022-12-29T23:12:02.649Z,9.20
2022-12-29T23:14:30.015Z,9.20
2022-12-29T23:16:57.369Z,9.30
2022-12-29T23:19:24.766Z,9.20
2022-12-29T23:21:52.107Z,9.20
2022-12-29T23:24:19.463Z,9.30
2022-12-29T23:26:48.078Z,9.30
2022-12-29T23:29:17.352Z,9.30
2022-12-29T23:31:45.082Z,9.40
2022-12-29T23:34:13.015Z,9.40
2022-12-29T23:36:40.612Z,9.40
2022-12-29T23:39:10.792Z,9.40
2022-12-29T23:41:38.193Z,9.40
2022-12-29T23:44:05.583Z,9.40
2022-12-29T23:46:32.988Z,9.40
2022-12-29T23:49:00.341Z,9.40
2022-12-29T23:51:27.826Z,9.40
2022-12-29T23:53:55.208Z,9.50
2022-12-29T23:56:23.188Z,9.40
2022-12-29T23:58:50.940Z,9.40
